sensor_id;sensor_type;location;lat;lon;timestamp;P1;durP1;ratioP1;P2;durP2;ratioP2
5989;SDS011;14149;53.562;10.032;2022-12-18T00:00:11;20.53;;;10.33;;
5989;SDS011;14149;53.562;10.032;2022-12-18T00:02:37;24.30;;;11.33;;
5989;SDS011;14149;53.562;10.032;2022-12-18T00:05:03;23.77;;;10.43;;
5989;SDS011;14149;53.562;10.032;2022-12-18T00:07:29;17.30;;;10.30;;
5989;SDS011;14149;53.562;10.032;2022-12-18T00:09:55;29.60;;;9.27;;
5989;SDS011;14149;53.562;10.032;2022-12-18T00:12:21;17.80;;;9.93;;
5989;SDS011;14149;53.562;10.032;2022-12-18T00:14:47;19.13;;;10.20;;
5989;SDS011;14149;53.562;10.032;2022-12-18T00:17:13;19.30;;;9.63;;
5989;SDS011;14149;53.562;10.032;2022-12-18T00:19:39;18.97;;;9.53;;
5989;SDS011;14149;53.562;10.032;2022-12-18T00:22:06;17.37;;;10.67;;
5989;SDS011;14149;53.562;10.032;2022-12-18T00:24:32;17.20;;;8.87;;
5989;SDS011;14149;53.562;10.032;2022-12-18T00:26:58;16.63;;;10.10;;
5989;SDS011;14149;53.562;10.032;2022-12-18T00:29:24;15.00;;;9.93;;
5989;SDS011;14149;53.562;10.032;2022-12-18T00:31:50;19.17;;;10.77;;
5989;SDS011;14149;53.562;10.032;2022-12-18T00:34:16;16.43;;;9.40;;
5989;SDS011;14149;53.562;10.032;2022-12-18T00:36:42;19.77;;;9.50;;
5989;SDS011;14149;53.562;10.032;2022-12-18T00:39:09;19.03;;;8.73;;
5989;SDS011;14149;53.562;10.032;2022-12-18T00:41:36;20.53;;;9.87;;
5989;SDS011;14149;53.562;10.032;2022-12-18T00:44:20;17.20;;;7.40;;
5989;SDS011;14149;53.562;10.032;2022-12-18T00:46:46;20.57;;;11.37;;
5989;SDS011;14149;53.562;10.032;2022-12-18T00:49:13;19.23;;;8.57;;
5989;SDS011;14149;53.562;10.032;2022-12-18T00:51:39;17.87;;;8.60;;
5989;SDS011;14149;53.562;10.032;2022-12-18T00:54:06;17.93;;;9.23;;
5989;SDS011;14149;53.562;10.032;2022-12-18T00:56:32;21.10;;;8.93;;
5989;SDS011;14149;53.562;10.032;2022-12-18T00:58:58;25.03;;;10.40;;
5989;SDS011;14149;53.562;10.032;2022-12-18T01:01:24;17.97;;;9.30;;
5989;SDS011;14149;53.562;10.032;2022-12-18T01:03:50;20.17;;;9.30;;
5989;SDS011;14149;53.562;10.032;2022-12-18T01:06:16;15.63;;;9.53;;
5989;SDS011;14149;53.562;10.032;2022-12-18T01:08:42;19.73;;;10.20;;
5989;SDS011;14149;53.562;10.032;2022-12-18T01:11:09;22.37;;;10.27;;
5989;SDS011;14149;53.562;10.032;2022-12-18T01:13:36;13.07;;;8.43;;
5989;SDS011;14149;53.562;10.032;2022-12-18T01:16:03;15.40;;;8.40;;
5989;SDS011;14149;53.562;10.032;2022-12-18T01:18:29;16.50;;;9.37;;
5989;SDS011;14149;53.562;10.032;2022-12-18T01:20:55;15.07;;;8.17;;
5989;SDS011;14149;53.562;10.032;2022-12-18T01:23:21;18.87;;;8.47;;
5989;SDS011;14149;53.562;10.032;2022-12-18T01:25:47;21.17;;;9.67;;
5989;SDS011;14149;53.562;10.032;2022-12-18T01:28:13;14.20;;;8.20;;
5989;SDS011;14149;53.562;10.032;2022-12-18T01:30:39;17.87;;;8.30;;
5989;SDS011;14149;53.562;10.032;2022-12-18T01:33:05;16.43;;;7.57;;
5989;SDS011;14149;53.562;10.032;2022-12-18T01:35:31;11.83;;;7.53;;
5989;SDS011;14149;53.562;10.032;2022-12-18T01:37:57;14.83;;;8.40;;
5989;SDS011;14149;53.562;10.032;2022-12-18T01:40:23;17.93;;;9.00;;
5989;SDS011;14149;53.562;10.032;2022-12-18T01:42:53;13.47;;;7.70;;
5989;SDS011;14149;53.562;10.032;2022-12-18T01:45:23;16.97;;;7.40;;
5989;SDS011;14149;53.562;10.032;2022-12-18T01:47:57;17.17;;;8.73;;
5989;SDS011;14149;53.562;10.032;2022-12-18T01:53:06;15.77;;;8.97;;
5989;SDS011;14149;53.562;10.032;2022-12-18T01:55:37;15.03;;;8.60;;
5989;SDS011;14149;53.562;10.032;2022-12-18T01:58:05;15.33;;;8.93;;
5989;SDS011;14149;53.562;10.032;2022-12-18T02:00:31;15.77;;;7.67;;
5989;SDS011;14149;53.562;10.032;2022-12-18T02:02:57;14.17;;;8.13;;
5989;SDS011;14149;53.562;10.032;2022-12-18T02:05:40;22.83;;;9.43;;
5989;SDS011;14149;53.562;10.032;2022-12-18T02:13:32;18.70;;;8.37;;
5989;SDS011;14149;53.562;10.032;2022-12-18T02:18:32;24.87;;;8.37;;
5989;SDS011;14149;53.562;10.032;2022-12-18T02:21:01;18.90;;;8.20;;
5989;SDS011;14149;53.562;10.032;2022-12-18T02:26:19;20.77;;;8.60;;
5989;SDS011;14149;53.562;10.032;2022-12-18T02:28:51;20.63;;;8.90;;
5989;SDS011;14149;53.562;10.032;2022-12-18T02:31:23;15.43;;;8.97;;
5989;SDS011;14149;53.562;10.032;2022-12-18T02:33:51;15.30;;;9.03;;
5989;SDS011;14149;53.562;10.032;2022-12-18T02:36:18;13.60;;;8.10;;
5989;SDS011;14149;53.562;10.032;2022-12-18T02:38:45;17.10;;;8.43;;
5989;SDS011;14149;53.562;10.032;2022-12-18T02:41:12;13.60;;;7.67;;
5989;SDS011;14149;53.562;10.032;2022-12-18T02:43:40;15.80;;;7.87;;
5989;SDS011;14149;53.562;10.032;2022-12-18T02:48:52;17.63;;;9.70;;
5989;SDS011;14149;53.562;10.032;2022-12-18T02:53:53;13.60;;;8.10;;
5989;SDS011;14149;53.562;10.032;2022-12-18T02:56:28;24.50;;;10.23;;
5989;SDS011;14149;53.562;10.032;2022-12-18T03:06:35;12.73;;;7.20;;
5989;SDS011;14149;53.562;10.032;2022-12-18T03:09:06;13.33;;;7.67;;
5989;SDS011;14149;53.562;10.032;2022-12-18T03:11:33;15.73;;;7.40;;
5989;SDS011;14149;53.562;10.032;2022-12-18T03:14:19;12.07;;;6.60;;
5989;SDS011;14149;53.562;10.032;2022-12-18T03:16:47;12.90;;;7.80;;
5989;SDS011;14149;53.562;10.032;2022-12-18T03:19:15;16.63;;;8.10;;
5989;SDS011;14149;53.562;10.032;2022-12-18T03:21:43;12.43;;;7.17;;
5989;SDS011;14149;53.562;10.032;2022-12-18T03:24:11;13.90;;;6.53;;
5989;SDS011;14149;53.562;10.032;2022-12-18T03:26:38;12.87;;;6.47;;
5989;SDS011;14149;53.562;10.032;2022-12-18T03:32:00;11.67;;;7.53;;
5989;SDS011;14149;53.562;10.032;2022-12-18T03:34:32;14.73;;;7.33;;
5989;SDS011;14149;53.562;10.032;2022-12-18T03:36:59;14.13;;;7.20;;
5989;SDS011;14149;53.562;10.032;2022-12-18T03:39:26;10.73;;;6.43;;
5989;SDS011;14149;53.562;10.032;2022-12-18T03:44:43;9.93;;;5.53;;
5989;SDS011;14149;53.562;10.032;2022-12-18T03:50:16;15.90;;;7.77;;
5989;SDS011;14149;53.562;10.032;2022-12-18T03:55:10;13.80;;;9.10;;
5989;SDS011;14149;53.562;10.032;2022-12-18T03:57:37;16.53;;;7.90;;
5989;SDS011;14149;53.562;10.032;2022-12-18T04:00:08;13.50;;;7.20;;
5989;SDS011;14149;53.562;10.032;2022-12-18T04:02:34;13.87;;;7.70;;
5989;SDS011;14149;53.562;10.032;2022-12-18T04:05:03;13.57;;;7.77;;
5989;SDS011;14149;53.562;10.032;2022-12-18T04:07:30;14.00;;;7.03;;
5989;SDS011;14149;53.562;10.032;2022-12-18T04:09:56;15.40;;;7.67;;
5989;SDS011;14149;53.562;10.032;2022-12-18T04:12:25;23.73;;;8.60;;
5989;SDS011;14149;53.562;10.032;2022-12-18T04:14:51;16.00;;;7.40;;
5989;SDS011;14149;53.562;10.032;2022-12-18T04:17:17;12.57;;;7.20;;
5989;SDS011;14149;53.562;10.032;2022-12-18T04:19:43;14.13;;;5.80;;
5989;SDS011;14149;53.562;10.032;2022-12-18T04:22:10;13.13;;;7.00;;
5989;SDS011;14149;53.562;10.032;2022-12-18T04:24:36;12.70;;;6.67;;
5989;SDS011;14149;53.562;10.032;2022-12-18T04:27:02;14.53;;;6.13;;
5989;SDS011;14149;53.562;10.032;2022-12-18T04:29:29;14.50;;;8.20;;
5989;SDS011;14149;53.562;10.032;2022-12-18T04:31:55;14.20;;;6.33;;
5989;SDS011;14149;53.562;10.032;2022-12-18T04:34:21;11.80;;;6.97;;
5989;SDS011;14149;53.562;10.032;2022-12-18T04:36:47;12.37;;;5.97;;
5989;SDS011;14149;53.562;10.032;2022-12-18T04:39:13;14.20;;;6.47;;
5989;SDS011;14149;53.562;10.032;2022-12-18T04:41:42;11.90;;;6.50;;
5989;SDS011;14149;53.562;10.032;2022-12-18T04:44:08;13.13;;;7.53;;
5989;SDS011;14149;53.562;10.032;2022-12-18T04:46:34;12.47;;;6.40;;
5989;SDS011;14149;53.562;10.032;2022-12-18T04:49:00;20.17;;;8.17;;
5989;SDS011;14149;53.562;10.032;2022-12-18T04:51:26;13.57;;;7.00;;
5989;SDS011;14149;53.562;10.032;2022-12-18T04:53:53;14.67;;;6.60;;
5989;SDS011;14149;53.562;10.032;2022-12-18T04:56:19;12.17;;;6.83;;
5989;SDS011;14149;53.562;10.032;2022-12-18T04:58:45;13.93;;;7.20;;
5989;SDS011;14149;53.562;10.032;2022-12-18T05:01:12;12.83;;;6.60;;
5989;SDS011;14149;53.562;10.032;2022-12-18T05:03:38;16.73;;;7.37;;
5989;SDS011;14149;53.562;10.032;2022-12-18T05:06:05;13.17;;;6.37;;
5989;SDS011;14149;53.562;10.032;2022-12-18T05:08:31;14.33;;;7.57;;
5989;SDS011;14149;53.562;10.032;2022-12-18T05:10:58;14.50;;;7.13;;
5989;SDS011;14149;53.562;10.032;2022-12-18T05:13:25;9.70;;;6.43;;
5989;SDS011;14149;53.562;10.032;2022-12-18T05:15:51;20.47;;;7.83;;
5989;SDS011;14149;53.562;10.032;2022-12-18T05:18:17;13.90;;;6.17;;
5989;SDS011;14149;53.562;10.032;2022-12-18T05:20:43;12.60;;;7.87;;
5989;SDS011;14149;53.562;10.032;2022-12-18T05:23:10;13.40;;;7.40;;
5989;SDS011;14149;53.562;10.032;2022-12-18T05:25:36;14.37;;;7.00;;
5989;SDS011;14149;53.562;10.032;2022-12-18T05:28:02;15.77;;;8.40;;
5989;SDS011;14149;53.562;10.032;2022-12-18T05:30:28;15.60;;;7.70;;
5989;SDS011;14149;53.562;10.032;2022-12-18T05:32:54;15.30;;;8.47;;
5989;SDS011;14149;53.562;10.032;2022-12-18T05:35:21;12.43;;;7.00;;
5989;SDS011;14149;53.562;10.032;2022-12-18T05:37:47;16.70;;;7.20;;
5989;SDS011;14149;53.562;10.032;2022-12-18T05:40:13;15.90;;;6.50;;
5989;SDS011;14149;53.562;10.032;2022-12-18T05:42:39;8.83;;;5.27;;
5989;SDS011;14149;53.562;10.032;2022-12-18T05:45:05;16.00;;;6.73;;
5989;SDS011;14149;53.562;10.032;2022-12-18T05:47:32;13.57;;;7.10;;
5989;SDS011;14149;53.562;10.032;2022-12-18T05:49:58;17.40;;;6.53;;
5989;SDS011;14149;53.562;10.032;2022-12-18T05:52:24;17.57;;;7.70;;
5989;SDS011;14149;53.562;10.032;2022-12-18T05:54:50;12.13;;;6.20;;
5989;SDS011;14149;53.562;10.032;2022-12-18T05:57:16;13.93;;;7.40;;
5989;SDS011;14149;53.562;10.032;2022-12-18T05:59:42;16.70;;;8.13;;
5989;SDS011;14149;53.562;10.032;2022-12-18T06:02:08;19.40;;;7.57;;
5989;SDS011;14149;53.562;10.032;2022-12-18T06:04:34;19.20;;;7.17;;
5989;SDS011;14149;53.562;10.032;2022-12-18T06:07:01;13.20;;;6.70;;
5989;SDS011;14149;53.562;10.032;2022-12-18T06:09:28;15.10;;;8.07;;
5989;SDS011;14149;53.562;10.032;2022-12-18T06:11:54;17.80;;;8.40;;
5989;SDS011;14149;53.562;10.032;2022-12-18T06:14:20;28.70;;;7.77;;
5989;SDS011;14149;53.562;10.032;2022-12-18T06:16:46;18.30;;;7.50;;
5989;SDS011;14149;53.562;10.032;2022-12-18T06:19:15;11.07;;;6.53;;
5989;SDS011;14149;53.562;10.032;2022-12-18T06:21:42;13.60;;;7.00;;
5989;SDS011;14149;53.562;10.032;2022-12-18T06:24:08;16.80;;;7.03;;
5989;SDS011;14149;53.562;10.032;2022-12-18T06:26:36;19.73;;;7.53;;
5989;SDS011;14149;53.562;10.032;2022-12-18T06:29:02;17.03;;;7.73;;
5989;SDS011;14149;53.562;10.032;2022-12-18T06:31:28;18.07;;;7.40;;
5989;SDS011;14149;53.562;10.032;2022-12-18T06:33:54;13.03;;;7.87;;
5989;SDS011;14149;53.562;10.032;2022-12-18T06:36:21;13.73;;;7.90;;
5989;SDS011;14149;53.562;10.032;2022-12-18T06:38:47;22.03;;;8.20;;
5989;SDS011;14149;53.562;10.032;2022-12-18T06:41:15;15.70;;;8.07;;
5989;SDS011;14149;53.562;10.032;2022-12-18T06:43:41;13.10;;;7.40;;
5989;SDS011;14149;53.562;10.032;2022-12-18T06:46:08;13.13;;;7.60;;
5989;SDS011;14149;53.562;10.032;2022-12-18T06:48:34;18.67;;;9.73;;
5989;SDS011;14149;53.562;10.032;2022-12-18T06:51:00;19.60;;;9.40;;
5989;SDS011;14149;53.562;10.032;2022-12-18T06:53:26;16.27;;;8.27;;
5989;SDS011;14149;53.562;10.032;2022-12-18T06:55:59;17.07;;;8.60;;
5989;SDS011;14149;53.562;10.032;2022-12-18T06:58:25;15.10;;;7.87;;
5989;SDS011;14149;53.562;10.032;2022-12-18T07:00:51;14.10;;;6.80;;
5989;SDS011;14149;53.562;10.032;2022-12-18T07:03:17;17.90;;;9.10;;
5989;SDS011;14149;53.562;10.032;2022-12-18T07:05:43;14.73;;;7.37;;
5989;SDS011;14149;53.562;10.032;2022-12-18T07:08:09;20.43;;;6.50;;
5989;SDS011;14149;53.562;10.032;2022-12-18T07:10:42;14.90;;;7.40;;
5989;SDS011;14149;53.562;10.032;2022-12-18T07:13:08;24.20;;;8.10;;
5989;SDS011;14149;53.562;10.032;2022-12-18T07:15:34;17.60;;;7.90;;
5989;SDS011;14149;53.562;10.032;2022-12-18T07:18:00;21.00;;;7.73;;
5989;SDS011;14149;53.562;10.032;2022-12-18T07:20:26;14.17;;;7.97;;
5989;SDS011;14149;53.562;10.032;2022-12-18T07:22:52;14.83;;;7.27;;
5989;SDS011;14149;53.562;10.032;2022-12-18T07:25:19;17.90;;;7.07;;
5989;SDS011;14149;53.562;10.032;2022-12-18T07:27:45;14.33;;;8.10;;
5989;SDS011;14149;53.562;10.032;2022-12-18T07:30:11;21.60;;;8.67;;
5989;SDS011;14149;53.562;10.032;2022-12-18T07:32:37;17.00;;;8.00;;
5989;SDS011;14149;53.562;10.032;2022-12-18T07:35:03;17.53;;;8.73;;
5989;SDS011;14149;53.562;10.032;2022-12-18T07:37:29;14.37;;;7.23;;
5989;SDS011;14149;53.562;10.032;2022-12-18T07:39:55;14.67;;;7.27;;
5989;SDS011;14149;53.562;10.032;2022-12-18T07:42:21;15.60;;;8.53;;
5989;SDS011;14149;53.562;10.032;2022-12-18T07:44:57;16.07;;;6.87;;
5989;SDS011;14149;53.562;10.032;2022-12-18T07:47:23;20.47;;;10.00;;
5989;SDS011;14149;53.562;10.032;2022-12-18T07:49:50;17.87;;;8.70;;
5989;SDS011;14149;53.562;10.032;2022-12-18T07:52:16;14.60;;;8.87;;
5989;SDS011;14149;53.562;10.032;2022-12-18T07:54:42;13.80;;;7.70;;
5989;SDS011;14149;53.562;10.032;2022-12-18T07:57:08;16.97;;;7.00;;
5989;SDS011;14149;53.562;10.032;2022-12-18T07:59:34;18.80;;;7.67;;
5989;SDS011;14149;53.562;10.032;2022-12-18T08:02:01;18.40;;;8.43;;
5989;SDS011;14149;53.562;10.032;2022-12-18T08:04:27;13.77;;;9.03;;
5989;SDS011;14149;53.562;10.032;2022-12-18T08:06:53;16.67;;;7.70;;
5989;SDS011;14149;53.562;10.032;2022-12-18T08:09:19;15.10;;;7.73;;
5989;SDS011;14149;53.562;10.032;2022-12-18T08:11:45;24.63;;;8.40;;
5989;SDS011;14149;53.562;10.032;2022-12-18T08:14:11;20.87;;;7.73;;
5989;SDS011;14149;53.562;10.032;2022-12-18T08:16:38;16.10;;;6.57;;
5989;SDS011;14149;53.562;10.032;2022-12-18T08:19:04;15.30;;;8.10;;
5989;SDS011;14149;53.562;10.032;2022-12-18T08:21:30;18.27;;;8.80;;
5989;SDS011;14149;53.562;10.032;2022-12-18T08:23:58;25.00;;;8.53;;
5989;SDS011;14149;53.562;10.032;2022-12-18T08:26:25;8.47;;;4.97;;
5989;SDS011;14149;53.562;10.032;2022-12-18T08:28:53;11.40;;;5.93;;
5989;SDS011;14149;53.562;10.032;2022-12-18T08:31:20;15.20;;;8.43;;
5989;SDS011;14149;53.562;10.032;2022-12-18T08:33:48;15.37;;;7.00;;
5989;SDS011;14149;53.562;10.032;2022-12-18T08:36:14;18.97;;;8.73;;
5989;SDS011;14149;53.562;10.032;2022-12-18T08:38:40;16.17;;;8.50;;
5989;SDS011;14149;53.562;10.032;2022-12-18T08:41:07;18.83;;;10.40;;
5989;SDS011;14149;53.562;10.032;2022-12-18T08:43:33;13.00;;;7.97;;
5989;SDS011;14149;53.562;10.032;2022-12-18T08:46:18;23.67;;;9.87;;
5989;SDS011;14149;53.562;10.032;2022-12-18T08:48:45;19.53;;;8.53;;
5989;SDS011;14149;53.562;10.032;2022-12-18T08:51:11;18.43;;;9.13;;
5989;SDS011;14149;53.562;10.032;2022-12-18T08:53:37;18.43;;;11.90;;
5989;SDS011;14149;53.562;10.032;2022-12-18T08:56:04;13.40;;;7.67;;
5989;SDS011;14149;53.562;10.032;2022-12-18T08:58:30;16.70;;;8.93;;
5989;SDS011;14149;53.562;10.032;2022-12-18T09:01:00;18.17;;;9.80;;
5989;SDS011;14149;53.562;10.032;2022-12-18T09:03:26;21.47;;;10.70;;
5989;SDS011;14149;53.562;10.032;2022-12-18T09:05:53;19.00;;;9.20;;
5989;SDS011;14149;53.562;10.032;2022-12-18T09:08:19;22.03;;;10.33;;
5989;SDS011;14149;53.562;10.032;2022-12-18T09:10:45;21.30;;;9.37;;
5989;SDS011;14149;53.562;10.032;2022-12-18T09:13:12;22.93;;;10.03;;
5989;SDS011;14149;53.562;10.032;2022-12-18T09:15:42;17.27;;;9.87;;
5989;SDS011;14149;53.562;10.032;2022-12-18T09:18:10;15.77;;;8.97;;
5989;SDS011;14149;53.562;10.032;2022-12-18T09:20:36;20.57;;;9.80;;
5989;SDS011;14149;53.562;10.032;2022-12-18T09:23:03;18.13;;;9.83;;
5989;SDS011;14149;53.562;10.032;2022-12-18T09:25:29;16.30;;;8.57;;
5989;SDS011;14149;53.562;10.032;2022-12-18T09:28:00;16.97;;;9.10;;
5989;SDS011;14149;53.562;10.032;2022-12-18T09:30:27;16.53;;;8.60;;
5989;SDS011;14149;53.562;10.032;2022-12-18T09:32:53;19.90;;;9.27;;
5989;SDS011;14149;53.562;10.032;2022-12-18T09:35:19;15.17;;;8.20;;
5989;SDS011;14149;53.562;10.032;2022-12-18T09:37:45;19.37;;;9.90;;
5989;SDS011;14149;53.562;10.032;2022-12-18T09:40:16;18.33;;;8.57;;
5989;SDS011;14149;53.562;10.032;2022-12-18T09:42:44;20.03;;;9.20;;
5989;SDS011;14149;53.562;10.032;2022-12-18T09:45:13;14.40;;;7.63;;
5989;SDS011;14149;53.562;10.032;2022-12-18T09:47:41;13.90;;;6.27;;
5989;SDS011;14149;53.562;10.032;2022-12-18T09:50:23;16.67;;;8.17;;
5989;SDS011;14149;53.562;10.032;2022-12-18T09:52:51;17.93;;;8.67;;
5989;SDS011;14149;53.562;10.032;2022-12-18T09:55:41;21.70;;;8.13;;
5989;SDS011;14149;53.562;10.032;2022-12-18T09:58:11;13.57;;;7.10;;
5989;SDS011;14149;53.562;10.032;2022-12-18T10:00:43;21.50;;;9.50;;
5989;SDS011;14149;53.562;10.032;2022-12-18T10:03:10;15.67;;;7.80;;
5989;SDS011;14149;53.562;10.032;2022-12-18T10:05:41;19.50;;;9.73;;
5989;SDS011;14149;53.562;10.032;2022-12-18T10:08:22;18.60;;;9.43;;
5989;SDS011;14149;53.562;10.032;2022-12-18T10:10:51;18.27;;;9.50;;
5989;SDS011;14149;53.562;10.032;2022-12-18T10:21:10;17.60;;;8.30;;
5989;SDS011;14149;53.562;10.032;2022-12-18T10:26:08;18.63;;;8.20;;
5989;SDS011;14149;53.562;10.032;2022-12-18T10:28:38;22.53;;;9.20;;
5989;SDS011;14149;53.562;10.032;2022-12-18T10:31:38;17.80;;;9.23;;
5989;SDS011;14149;53.562;10.032;2022-12-18T10:33:57;20.53;;;8.87;;
5989;SDS011;14149;53.562;10.032;2022-12-18T10:36:24;22.27;;;9.90;;
5989;SDS011;14149;53.562;10.032;2022-12-18T10:38:50;14.57;;;8.70;;
5989;SDS011;14149;53.562;10.032;2022-12-18T10:43:47;16.63;;;8.53;;
5989;SDS011;14149;53.562;10.032;2022-12-18T10:46:17;14.67;;;9.70;;
5989;SDS011;14149;53.562;10.032;2022-12-18T10:51:23;19.50;;;9.83;;
5989;SDS011;14149;53.562;10.032;2022-12-18T10:53:54;17.37;;;8.80;;
5989;SDS011;14149;53.562;10.032;2022-12-18T10:56:20;22.10;;;8.90;;
5989;SDS011;14149;53.562;10.032;2022-12-18T10:58:55;20.07;;;8.20;;
5989;SDS011;14149;53.562;10.032;2022-12-18T11:01:21;18.03;;;9.13;;
5989;SDS011;14149;53.562;10.032;2022-12-18T11:06:17;17.70;;;9.13;;
5989;SDS011;14149;53.562;10.032;2022-12-18T11:08:57;21.13;;;9.70;;
5989;SDS011;14149;53.562;10.032;2022-12-18T11:11:23;17.63;;;9.30;;
5989;SDS011;14149;53.562;10.032;2022-12-18T11:16:22;20.83;;;10.90;;
5989;SDS011;14149;53.562;10.032;2022-12-18T11:18:48;24.97;;;11.57;;
5989;SDS011;14149;53.562;10.032;2022-12-18T11:21:14;12.10;;;8.03;;
5989;SDS011;14149;53.562;10.032;2022-12-18T11:23:49;19.00;;;9.90;;
5989;SDS011;14149;53.562;10.032;2022-12-18T11:26:15;17.63;;;8.43;;
5989;SDS011;14149;53.562;10.032;2022-12-18T11:28:51;20.50;;;9.53;;
5989;SDS011;14149;53.562;10.032;2022-12-18T11:31:23;15.20;;;8.47;;
5989;SDS011;14149;53.562;10.032;2022-12-18T11:36:25;18.87;;;8.60;;
5989;SDS011;14149;53.562;10.032;2022-12-18T11:38:54;14.97;;;9.50;;
5989;SDS011;14149;53.562;10.032;2022-12-18T11:41:23;18.77;;;8.97;;
5989;SDS011;14149;53.562;10.032;2022-12-18T11:44:14;20.63;;;8.67;;
5989;SDS011;14149;53.562;10.032;2022-12-18T11:47:03;19.47;;;8.60;;
5989;SDS011;14149;53.562;10.032;2022-12-18T11:49:34;19.10;;;8.33;;
5989;SDS011;14149;53.562;10.032;2022-12-18T11:52:03;21.03;;;10.00;;
5989;SDS011;14149;53.562;10.032;2022-12-18T11:54:30;15.57;;;7.50;;
5989;SDS011;14149;53.562;10.032;2022-12-18T11:59:48;18.30;;;10.17;;
5989;SDS011;14149;53.562;10.032;2022-12-18T12:02:28;16.77;;;8.20;;
5989;SDS011;14149;53.562;10.032;2022-12-18T12:07:38;24.70;;;10.40;;
5989;SDS011;14149;53.562;10.032;2022-12-18T12:15:51;20.70;;;9.63;;
5989;SDS011;14149;53.562;10.032;2022-12-18T12:21:38;18.27;;;9.80;;
5989;SDS011;14149;53.562;10.032;2022-12-18T12:29:00;21.57;;;9.00;;
5989;SDS011;14149;53.562;10.032;2022-12-18T12:31:47;18.30;;;10.23;;
5989;SDS011;14149;53.562;10.032;2022-12-18T12:34:36;19.30;;;10.50;;
5989;SDS011;14149;53.562;10.032;2022-12-18T12:39:45;19.47;;;10.20;;
5989;SDS011;14149;53.562;10.032;2022-12-18T12:42:20;23.90;;;10.20;;
5989;SDS011;14149;53.562;10.032;2022-12-18T12:45:06;23.33;;;11.00;;
5989;SDS011;14149;53.562;10.032;2022-12-18T12:47:40;25.93;;;10.50;;
5989;SDS011;14149;53.562;10.032;2022-12-18T12:50:12;23.37;;;10.63;;
5989;SDS011;14149;53.562;10.032;2022-12-18T12:53:21;21.50;;;11.10;;
5989;SDS011;14149;53.562;10.032;2022-12-18T12:55:31;23.50;;;10.50;;
5989;SDS011;14149;53.562;10.032;2022-12-18T12:58:05;26.63;;;11.97;;
5989;SDS011;14149;53.562;10.032;2022-12-18T13:00:53;22.40;;;10.00;;
5989;SDS011;14149;53.562;10.032;2022-12-18T13:03:35;23.77;;;11.07;;
5989;SDS011;14149;53.562;10.032;2022-12-18T13:06:09;20.40;;;10.50;;
5989;SDS011;14149;53.562;10.032;2022-12-18T13:08:56;20.50;;;9.90;;
5989;SDS011;14149;53.562;10.032;2022-12-18T13:11:36;21.67;;;10.80;;
5989;SDS011;14149;53.562;10.032;2022-12-18T13:14:27;22.97;;;10.77;;
5989;SDS011;14149;53.562;10.032;2022-12-18T13:19:38;23.03;;;11.20;;
5989;SDS011;14149;53.562;10.032;2022-12-18T13:22:12;23.70;;;9.07;;
5989;SDS011;14149;53.562;10.032;2022-12-18T13:24:46;26.43;;;10.93;;
5989;SDS011;14149;53.562;10.032;2022-12-18T13:29:57;22.17;;;10.93;;
5989;SDS011;14149;53.562;10.032;2022-12-18T13:32:26;25.53;;;10.60;;
5989;SDS011;14149;53.562;10.032;2022-12-18T13:37:43;19.60;;;8.30;;
5989;SDS011;14149;53.562;10.032;2022-12-18T13:43:20;21.47;;;9.60;;
5989;SDS011;14149;53.562;10.032;2022-12-18T13:46:02;25.90;;;10.00;;
5989;SDS011;14149;53.562;10.032;2022-12-18T13:48:31;20.43;;;9.50;;
5989;SDS011;14149;53.562;10.032;2022-12-18T13:50:59;17.70;;;9.97;;
5989;SDS011;14149;53.562;10.032;2022-12-18T13:53:31;20.30;;;10.37;;
5989;SDS011;14149;53.562;10.032;2022-12-18T13:55:58;20.47;;;10.10;;
5989;SDS011;14149;53.562;10.032;2022-12-18T13:58:25;22.50;;;10.70;;
5989;SDS011;14149;53.562;10.032;2022-12-18T14:00:51;26.33;;;11.50;;
5989;SDS011;14149;53.562;10.032;2022-12-18T14:03:18;21.90;;;9.70;;
5989;SDS011;14149;53.562;10.032;2022-12-18T14:05:45;22.30;;;10.20;;
5989;SDS011;14149;53.562;10.032;2022-12-18T14:08:12;21.77;;;8.60;;
5989;SDS011;14149;53.562;10.032;2022-12-18T14:10:43;22.57;;;9.03;;
5989;SDS011;14149;53.562;10.032;2022-12-18T14:13:10;24.17;;;11.13;;
5989;SDS011;14149;53.562;10.032;2022-12-18T14:15:41;21.20;;;10.20;;
5989;SDS011;14149;53.562;10.032;2022-12-18T14:18:19;24.00;;;10.53;;
5989;SDS011;14149;53.562;10.032;2022-12-18T14:20:46;25.10;;;10.77;;
5989;SDS011;14149;53.562;10.032;2022-12-18T14:25:57;25.10;;;10.90;;
5989;SDS011;14149;53.562;10.032;2022-12-18T14:28:24;27.67;;;10.30;;
5989;SDS011;14149;53.562;10.032;2022-12-18T14:30:51;22.47;;;8.90;;
5989;SDS011;14149;53.562;10.032;2022-12-18T14:33:21;20.07;;;8.53;;
5989;SDS011;14149;53.562;10.032;2022-12-18T14:36:01;24.53;;;10.97;;
5989;SDS011;14149;53.562;10.032;2022-12-18T14:38:31;22.20;;;10.00;;
5989;SDS011;14149;53.562;10.032;2022-12-18T14:43:24;21.50;;;9.20;;
5989;SDS011;14149;53.562;10.032;2022-12-18T14:45:50;25.77;;;10.77;;
5989;SDS011;14149;53.562;10.032;2022-12-18T14:48:18;22.53;;;9.47;;
5989;SDS011;14149;53.562;10.032;2022-12-18T14:50:45;20.97;;;9.13;;
5989;SDS011;14149;53.562;10.032;2022-12-18T14:53:20;25.03;;;13.27;;
5989;SDS011;14149;53.562;10.032;2022-12-18T14:55:48;24.10;;;9.70;;
5989;SDS011;14149;53.562;10.032;2022-12-18T14:58:18;20.23;;;10.53;;
5989;SDS011;14149;53.562;10.032;2022-12-18T15:00:44;29.50;;;11.77;;
5989;SDS011;14149;53.562;10.032;2022-12-18T15:03:12;27.63;;;9.47;;
5989;SDS011;14149;53.562;10.032;2022-12-18T15:05:43;27.67;;;11.13;;
5989;SDS011;14149;53.562;10.032;2022-12-18T15:08:31;26.57;;;11.67;;
5989;SDS011;14149;53.562;10.032;2022-12-18T15:11:00;25.23;;;9.17;;
5989;SDS011;14149;53.562;10.032;2022-12-18T15:13:26;30.87;;;10.93;;
5989;SDS011;14149;53.562;10.032;2022-12-18T15:15:52;32.13;;;12.27;;
5989;SDS011;14149;53.562;10.032;2022-12-18T15:18:21;25.73;;;11.00;;
5989;SDS011;14149;53.562;10.032;2022-12-18T15:20:56;18.37;;;9.50;;
5989;SDS011;14149;53.562;10.032;2022-12-18T15:23:25;21.27;;;9.53;;
5989;SDS011;14149;53.562;10.032;2022-12-18T15:25:55;27.63;;;11.70;;
5989;SDS011;14149;53.562;10.032;2022-12-18T15:28:26;22.23;;;10.23;;
5989;SDS011;14149;53.562;10.032;2022-12-18T15:30:59;25.97;;;10.73;;
5989;SDS011;14149;53.562;10.032;2022-12-18T15:33:26;40.40;;;12.00;;
5989;SDS011;14149;53.562;10.032;2022-12-18T15:35:56;33.70;;;11.00;;
5989;SDS011;14149;53.562;10.032;2022-12-18T15:38:22;22.33;;;11.50;;
5989;SDS011;14149;53.562;10.032;2022-12-18T15:40:49;20.37;;;9.07;;
5989;SDS011;14149;53.562;10.032;2022-12-18T15:43:21;24.53;;;9.73;;
5989;SDS011;14149;53.562;10.032;2022-12-18T15:48:34;22.47;;;11.57;;
5989;SDS011;14149;53.562;10.032;2022-12-18T15:51:01;19.00;;;8.60;;
5989;SDS011;14149;53.562;10.032;2022-12-18T15:53:29;30.77;;;10.97;;
5989;SDS011;14149;53.562;10.032;2022-12-18T15:55:55;30.63;;;11.83;;
5989;SDS011;14149;53.562;10.032;2022-12-18T15:58:40;21.80;;;11.47;;
5989;SDS011;14149;53.562;10.032;2022-12-18T16:01:07;25.97;;;10.40;;
5989;SDS011;14149;53.562;10.032;2022-12-18T16:03:34;24.60;;;10.13;;
5989;SDS011;14149;53.562;10.032;2022-12-18T16:06:00;29.37;;;11.43;;
5989;SDS011;14149;53.562;10.032;2022-12-18T16:08:27;30.47;;;11.77;;
5989;SDS011;14149;53.562;10.032;2022-12-18T16:10:54;25.30;;;10.10;;
5989;SDS011;14149;53.562;10.032;2022-12-18T16:13:20;24.17;;;9.63;;
5989;SDS011;14149;53.562;10.032;2022-12-18T16:15:47;36.77;;;12.17;;
5989;SDS011;14149;53.562;10.032;2022-12-18T16:18:14;22.90;;;10.53;;
5989;SDS011;14149;53.562;10.032;2022-12-18T16:20:40;24.43;;;11.73;;